| time (UTC) | temp C | wind direction | speed KPH | gust KPH | rain 1hr cm | rain 24hr cm | rain mn cm | humidity % | barometer mb |
| 20260507113017 | 7 | 22 | 1.6 | 3.2 | 0.03 | 0.97 | 0.46 | 95 | 1010.1 |
| 20260507112015 | 7 | 20 | 1.6 | 6.4 | 0.03 | 0.97 | 0.46 | 95 | 1010.1 |
| 20260507111016 | 7 | 341 | 1.6 | 6.4 | 0.03 | 0.97 | 0.46 | 95 | 1010.0 |
| 20260507110016 | 7 | 12 | 1.6 | 4.8 | 0.03 | 0.97 | 0.46 | 96 | 1009.9 |
| 20260507105018 | 7 | 12 | 1.6 | 6.4 | 0.03 | 0.97 | 0.46 | 96 | 1009.8 |
| 20260507104016 | 7 | 10 | 0.0 | 3.2 | 0.03 | 0.94 | 0.43 | 96 | 1009.6 |
| 20260507103016 | 8 | 348 | 1.6 | 6.4 | 0.03 | 0.94 | 0.43 | 96 | 1009.6 |
| 20260507102116 | 8 | 89 | 1.6 | 8.0 | 0.03 | 0.94 | 0.43 | 96 | 1009.3 |
| 20260507101017 | 8 | 343 | 1.6 | 4.8 | 0.05 | 0.94 | 0.43 | 96 | 1009.2 |
| 20260507100017 | 8 | 16 | 0.0 | 4.8 | 0.05 | 0.94 | 0.43 | 96 | 1009.0 |
| 20260507095017 | 8 | 20 | 1.6 | 6.4 | 0.08 | 0.94 | 0.43 | 96 | 1009.0 |
| 20260507094016 | 8 | 30 | 0.0 | 8.0 | 0.05 | 0.91 | 0.41 | 96 | 1009.1 |
| 20260507093016 | 8 | 52 | 0.0 | 4.8 | 0.10 | 0.91 | 0.41 | 96 | 1009.4 |
| 20260507092017 | 8 | 15 | 1.6 | 4.8 | 0.10 | 0.91 | 0.41 | 96 | 1008.8 |
| 20260507091016 | 8 | 12 | 1.6 | 8.0 | 0.08 | 0.89 | 0.38 | 96 | 1009.1 |
| 20260507090016 | 8 | 264 | 1.6 | 4.8 | 0.10 | 0.89 | 0.38 | 95 | 1009.0 |
| 20260507085016 | 8 | 9 | 1.6 | 4.8 | 0.13 | 0.86 | 0.36 | 95 | 1009.0 |
| 20260507084016 | 8 | 22 | 1.6 | 8.0 | 0.18 | 0.86 | 0.36 | 96 | 1009.3 |
| 20260507083017 | 8 | 9 | 0.0 | 4.8 | 0.15 | 0.81 | 0.30 | 95 | 1009.3 |
| 20260507082016 | 8 | 2 | 1.6 | 4.8 | 0.20 | 0.81 | 0.30 | 95 | 1008.7 |
| 20260507081016 | 8 | 300 | 1.6 | 6.4 | 0.20 | 0.81 | 0.30 | 95 | 1009.4 |
| 20260507080016 | 8 | 212 | 0.0 | 3.2 | 0.20 | 0.79 | 0.28 | 95 | 1009.6 |
| 20260507075117 | 9 | 213 | 0.0 | 1.6 | 0.18 | 0.74 | 0.23 | 95 | 1009.0 |
| 20260507074418 | 9 | 213 | 1.6 | 3.2 | 0.18 | 0.69 | 0.18 | 95 | 1009.5 |
| 20260507073016 | 9 | 213 | 1.6 | 3.2 | 0.15 | 0.66 | 0.15 | 95 | 1009.2 |
| 20260507072016 | 9 | 147 | 0.0 | 3.2 | 0.10 | 0.61 | 0.10 | 95 | 1009.1 |
| 20260507071117 | 9 | 138 | 0.0 | 4.8 | 0.10 | 0.61 | 0.10 | 95 | 1009.4 |
| 20260507070016 | 9 | 141 | 1.6 | 4.8 | 0.08 | 0.58 | 0.08 | 95 | 1009.1 |
| 20260507065016 | 10 | 279 | 0.0 | 4.8 | 0.05 | 0.56 | 0.05 | 95 | 1008.8 |
| 20260507064016 | 10 | 299 | 1.6 | 4.8 | 0.00 | 0.51 | 0.00 | 95 | 1008.5 |
| 20260507063016 | 10 | 298 | 1.6 | 3.2 | 0.00 | 0.51 | 0.00 | 95 | 1008.1 |
| 20260507062117 | 10 | 0.0 | 1.6 | 0.00 | 0.51 | 0.00 | 95 | 1008.1 | |
| 20260507061016 | 10 | 300 | 0.0 | 6.4 | 0.00 | 0.51 | 0.00 | 95 | 1008.4 |
| 20260507060017 | 10 | 272 | 1.6 | 9.7 | 0.00 | 0.51 | 0.00 | 95 | 1008.7 |
| 20260507055016 | 10 | 82 | 0.0 | 3.2 | 0.00 | 0.51 | 0.00 | 95 | 1008.8 |
| 20260507054016 | 10 | 82 | 0.0 | 1.6 | 0.00 | 0.51 | 0.00 | 95 | 1009.0 |
| 20260507053016 | 10 | 82 | 0.0 | 3.2 | 0.00 | 0.51 | 0.00 | 95 | 1009.0 |
| 20260507052216 | 10 | 0.0 | 3.2 | 0.00 | 0.51 | 0.00 | 95 | 1009.0 | |
| 20260507051016 | 10 | 86 | 1.6 | 3.2 | 0.00 | 0.51 | 0.00 | 96 | 1009.2 |
| 20260507050016 | 10 | 20 | 0.0 | 8.0 | 0.00 | 0.51 | 0.00 | 96 | 1009.4 |
| 20260507045116 | 11 | 81 | 1.6 | 6.4 | 0.00 | 0.51 | 0.00 | 96 | 1009.6 |
| 20260507044016 | 11 | 146 | 0.0 | 1.6 | 0.03 | 0.51 | 0.00 | 96 | 1009.4 |
| 20260507043017 | 11 | 146 | 0.0 | 4.8 | 0.03 | 0.51 | 0.00 | 96 | 1009.2 |
| 20260507042016 | 11 | 23 | 0.0 | 3.2 | 0.03 | 0.51 | 0.00 | 96 | 1009.3 |
| 20260507041016 | 11 | 11 | 1.6 | 3.2 | 0.03 | 0.51 | 0.00 | 96 | 1009.3 |
| 20260507040116 | 11 | 0.0 | 1.6 | 0.03 | 0.51 | 0.51 | 96 | 1009.4 | |
| 20260507035016 | 11 | 10 | 1.6 | 3.2 | 0.03 | 0.51 | 0.51 | 96 | 1009.5 |
| 20260507034016 | 11 | 13 | 1.6 | 4.8 | 0.00 | 0.48 | 0.48 | 96 | 1009.4 |
| 20260507033015 | 11 | 13 | 1.6 | 6.4 | 0.00 | 0.48 | 0.48 | 96 | 1009.5 |
| 20260507032016 | 11 | 23 | 3.2 | 8.0 | 0.00 | 0.48 | 0.48 | 96 | 1009.5 |
| 20260507031016 | 12 | 360 | 3.2 | 8.0 | 0.00 | 0.48 | 0.48 | 96 | 1009.5 |
| 20260507030016 | 13 | 21 | 3.2 | 8.0 | 0.00 | 0.48 | 0.48 | 97 | 1009.5 |
| 20260507025015 | 14 | 132 | 1.6 | 6.4 | 0.00 | 0.48 | 0.48 | 97 | 1009.0 |
| 20260507024016 | 13 | 184 | 1.6 | 4.8 | 0.00 | 0.48 | 0.48 | 97 | 1008.8 |
| 20260507023015 | 13 | 182 | 1.6 | 6.4 | 0.00 | 0.48 | 0.48 | 97 | 1008.8 |
| 20260507022016 | 13 | 191 | 1.6 | 4.8 | 0.00 | 0.48 | 0.48 | 97 | 1008.9 |
| 20260507021016 | 13 | 193 | 1.6 | 4.8 | 0.00 | 0.48 | 0.48 | 97 | 1008.9 |
| 20260507020117 | 13 | 194 | 1.6 | 4.8 | 0.00 | 0.48 | 0.48 | 97 | 1008.9 |
| 20260507015015 | 14 | 193 | 3.2 | 6.4 | 0.00 | 0.48 | 0.48 | 97 | 1008.8 |
| 20260507014015 | 13 | 196 | 3.2 | 6.4 | 0.00 | 0.48 | 0.48 | 97 | 1008.7 |
| 20260507013015 | 13 | 195 | 3.2 | 6.4 | 0.00 | 0.48 | 0.48 | 97 | 1008.8 |
| 20260507012015 | 13 | 196 | 3.2 | 6.4 | 0.00 | 0.48 | 0.48 | 97 | 1008.5 |
| 20260507010016 | 13 | 209 | 3.2 | 9.7 | 0.00 | 0.48 | 0.48 | 97 | 1008.6 |
| 20260507005016 | 13 | 181 | 3.2 | 6.4 | 0.00 | 0.48 | 0.48 | 97 | 1008.5 |
| 20260507004015 | 13 | 185 | 3.2 | 4.8 | 0.00 | 0.48 | 0.48 | 97 | 1008.4 |
| 20260507003015 | 13 | 185 | 3.2 | 6.4 | 0.00 | 0.48 | 0.48 | 97 | 1008.6 |
| 20260507002016 | 13 | 182 | 1.6 | 4.8 | 0.00 | 0.48 | 0.48 | 97 | 1008.7 |
| 20260507001015 | 13 | 178 | 3.2 | 9.7 | 0.00 | 0.48 | 0.48 | 97 | 1008.7 |
| 20260507000015 | 13 | 181 | 3.2 | 6.4 | 0.00 | 0.48 | 0.48 | 97 | 1008.6 |
| 20260506235015 | 13 | 194 | 3.2 | 8.0 | 0.00 | 0.48 | 0.48 | 97 | 1008.6 |
| 20260506234115 | 13 | 191 | 3.2 | 6.4 | 0.00 | 0.48 | 0.48 | 96 | 1008.5 |
| 20260506233016 | 13 | 189 | 3.2 | 11.3 | 0.00 | 0.48 | 0.48 | 97 | 1008.4 |
| 20260506232216 | 13 | 163 | 3.2 | 11.3 | 0.00 | 0.48 | 0.48 | 97 | 1008.3 |
| 20260506231015 | 13 | 198 | 3.2 | 6.4 | 0.00 | 0.48 | 0.48 | 97 | 1008.2 |
| 20260506230015 | 13 | 198 | 3.2 | 4.8 | 0.03 | 0.48 | 0.48 | 96 | 1008.1 |
| 20260506225115 | 13 | 159 | 3.2 | 6.4 | 0.03 | 0.48 | 0.48 | 96 | 1008.1 |
| 20260506224116 | 13 | 172 | 3.2 | 8.0 | 0.03 | 0.48 | 0.48 | 96 | 1008.0 |
| 20260506223215 | 13 | 176 | 3.2 | 8.0 | 0.03 | 0.48 | 0.48 | 96 | 1007.9 |
| 20260506222015 | 13 | 174 | 4.8 | 8.0 | 0.03 | 0.48 | 0.48 | 96 | 1008.0 |
| 20260506221015 | 13 | 178 | 3.2 | 8.0 | 0.05 | 0.48 | 0.48 | 96 | 1008.0 |
| 20260506220015 | 13 | 198 | 3.2 | 6.4 | 0.03 | 0.46 | 0.46 | 96 | 1008.0 |
| 20260506215015 | 13 | 184 | 3.2 | 8.0 | 0.05 | 0.46 | 0.46 | 96 | 1008.0 |
| 20260506214015 | 13 | 179 | 3.2 | 8.0 | 0.10 | 0.46 | 0.46 | 96 | 1008.0 |
| 20260506213015 | 13 | 197 | 3.2 | 8.0 | 0.18 | 0.46 | 0.46 | 96 | 1008.1 |
| 20260506212016 | 13 | 153 | 3.2 | 12.9 | 0.18 | 0.46 | 0.46 | 96 | 1008.1 |
| 20260506211016 | 13 | 168 | 3.2 | 14.5 | 0.15 | 0.43 | 0.43 | 96 | 1008.3 |
| 20260506210015 | 13 | 185 | 3.2 | 9.7 | 0.15 | 0.43 | 0.43 | 95 | 1008.3 |
| 20260506205015 | 14 | 185 | 3.2 | 9.7 | 0.13 | 0.41 | 0.41 | 95 | 1008.5 |
| 20260506204116 | 14 | 182 | 3.2 | 11.3 | 0.08 | 0.36 | 0.36 | 95 | 1008.6 |
| 20260506203015 | 14 | 169 | 3.2 | 8.0 | 0.00 | 0.28 | 0.28 | 95 | 1008.7 |
| 20260506202016 | 14 | 174 | 3.2 | 11.3 | 0.00 | 0.28 | 0.28 | 95 | 1008.5 |
| 20260506201015 | 14 | 179 | 3.2 | 8.0 | 0.00 | 0.28 | 0.28 | 95 | 1008.6 |
| 20260506200115 | 14 | 167 | 3.2 | 14.5 | 0.00 | 0.28 | 0.28 | 95 | 1008.7 |
| 20260506195015 | 13 | 170 | 4.8 | 9.7 | 0.03 | 0.28 | 0.28 | 95 | 1008.9 |
| 20260506194015 | 13 | 216 | 3.2 | 8.0 | 0.05 | 0.28 | 0.28 | 95 | 1009.0 |
| 20260506193115 | 13 | 185 | 4.8 | 16.1 | 0.08 | 0.28 | 0.28 | 94 | 1009.0 |
| 20260506192015 | 13 | 189 | 3.2 | 9.7 | 0.08 | 0.28 | 0.28 | 94 | 1009.1 |
| 20260506191015 | 13 | 190 | 4.8 | 11.3 | 0.13 | 0.28 | 0.28 | 94 | 1009.2 |
| 20260506190015 | 13 | 180 | 3.2 | 11.3 | 0.15 | 0.28 | 0.28 | 93 | 1009.3 |
| 20260506185015 | 13 | 180 | 4.8 | 17.7 | 0.18 | 0.25 | 0.25 | 93 | 1009.4 |
| 20260506184015 | 14 | 177 | 4.8 | 11.3 | 0.20 | 0.23 | 0.23 | 92 | 1009.5 |
| 20260506183015 | 14 | 173 | 6.4 | 14.5 | 0.20 | 0.20 | 0.20 | 91 | 1009.3 |
| 20260506182015 | 14 | 178 | 4.8 | 9.7 | 0.20 | 0.20 | 0.20 | 91 | 1009.5 |
| 20260506181115 | 15 | 166 | 6.4 | 14.5 | 0.15 | 0.15 | 0.15 | 90 | 1009.6 |
| 20260506180015 | 15 | 178 | 3.2 | 12.9 | 0.13 | 0.13 | 0.13 | 88 | 1009.9 |
| 20260506175015 | 15 | 167 | 3.2 | 11.3 | 0.08 | 0.08 | 0.08 | 86 | 1010.2 |
| 20260506174015 | 16 | 164 | 1.6 | 6.4 | 0.03 | 0.03 | 0.03 | 85 | 1010.4 |
| 20260506173015 | 16 | 154 | 3.2 | 6.4 | 0.00 | 0.00 | 0.00 | 83 | 1010.5 |
| 20260506172015 | 16 | 181 | 4.8 | 14.5 | 0.00 | 0.00 | 0.00 | 81 | 1010.6 |
| 20260506171016 | 17 | 179 | 4.8 | 11.3 | 0.00 | 0.00 | 0.00 | 79 | 1010.8 |
| 20260506170014 | 17 | 185 | 4.8 | 22.5 | 0.00 | 0.00 | 0.00 | 77 | 1010.9 |
| 20260506165015 | 18 | 194 | 4.8 | 24.1 | 0.00 | 0.00 | 0.00 | 76 | 1010.8 |
| 20260506164015 | 18 | 199 | 4.8 | 14.5 | 0.00 | 0.00 | 0.00 | 76 | 1010.7 |
| 20260506163015 | 18 | 195 | 4.8 | 14.5 | 0.00 | 0.00 | 0.00 | 75 | 1010.7 |
| 20260506162015 | 18 | 201 | 6.4 | 16.1 | 0.00 | 0.00 | 0.00 | 73 | 1010.9 |
| 20260506161017 | 18 | 190 | 6.4 | 16.1 | 0.00 | 0.00 | 0.00 | 73 | 1011.1 |
| 20260506160015 | 18 | 189 | 6.4 | 17.7 | 0.00 | 0.00 | 0.00 | 72 | 1011.2 |
| 20260506155017 | 19 | 190 | 6.4 | 14.5 | 0.00 | 0.00 | 0.00 | 71 | 1011.2 |
| 20260506154018 | 19 | 199 | 6.4 | 17.7 | 0.00 | 0.00 | 0.00 | 71 | 1011.1 |
| 20260506153117 | 20 | 193 | 4.8 | 12.9 | 0.00 | 0.00 | 0.00 | 70 | 1011.1 |
| 20260506152218 | 20 | 196 | 4.8 | 11.3 | 0.00 | 0.00 | 0.00 | 71 | 1011.2 |
| 20260506151018 | 20 | 190 | 8.0 | 24.1 | 0.00 | 0.00 | 0.00 | 71 | 1011.3 |
| 20260506150017 | 20 | 194 | 6.4 | 17.7 | 0.00 | 0.00 | 0.00 | 71 | 1011.3 |
| 20260506145016 | 20 | 188 | 4.8 | 11.3 | 0.00 | 0.00 | 0.00 | 71 | 1011.4 |
| 20260506144016 | 20 | 198 | 4.8 | 25.7 | 0.00 | 0.00 | 0.00 | 71 | 1011.4 |
| 20260506143016 | 19 | 182 | 8.0 | 19.3 | 0.00 | 0.00 | 0.00 | 72 | 1011.3 |
| 20260506142017 | 18 | 198 | 6.4 | 16.1 | 0.00 | 0.00 | 0.00 | 74 | 1011.4 |
| 20260506141016 | 18 | 196 | 4.8 | 11.3 | 0.00 | 0.00 | 0.00 | 75 | 1011.5 |
| 20260506140116 | 18 | 193 | 6.4 | 19.3 | 0.00 | 0.00 | 0.00 | 76 | 1011.3 |
| 20260506135017 | 18 | 181 | 4.8 | 14.5 | 0.00 | 0.00 | 0.00 | 76 | 1011.2 |
| 20260506134117 | 17 | 208 | 4.8 | 11.3 | 0.00 | 0.00 | 0.00 | 78 | 1011.2 |
| 20260506133016 | 17 | 192 | 6.4 | 12.9 | 0.00 | 0.00 | 0.00 | 79 | 1011.2 |
| 20260506132016 | 17 | 188 | 6.4 | 14.5 | 0.00 | 0.00 | 0.00 | 80 | 1011.1 |
| 20260506131016 | 17 | 191 | 4.8 | 9.7 | 0.00 | 0.00 | 0.00 | 81 | 1011.4 |
| 20260506130016 | 16 | 179 | 4.8 | 14.5 | 0.00 | 0.00 | 0.00 | 83 | 1011.6 |
| 20260506125016 | 16 | 192 | 4.8 | 9.7 | 0.00 | 0.00 | 0.00 | 85 | 1011.8 |
| 20260506124016 | 15 | 194 | 6.4 | 14.5 | 0.00 | 0.00 | 0.00 | 86 | 1011.8 |
| 20260506123017 | 15 | 192 | 4.8 | 12.9 | 0.00 | 0.00 | 0.00 | 88 | 1011.8 |
| 20260506122016 | 15 | 198 | 4.8 | 17.7 | 0.00 | 0.00 | 0.00 | 88 | 1011.7 |
| 20260506121016 | 15 | 188 | 4.8 | 12.9 | 0.00 | 0.00 | 0.00 | 88 | 1011.8 |
| 20260506120017 | 14 | 177 | 4.8 | 12.9 | 0.00 | 0.00 | 0.00 | 89 | 1011.8 |
| 20260506115018 | 14 | 196 | 4.8 | 9.7 | 0.00 | 0.00 | 0.00 | 89 | 1011.7 |
| 20260506114016 | 14 | 187 | 4.8 | 11.3 | 0.00 | 0.00 | 0.00 | 90 | 1011.6 |